Johnson City, Texas
Current Conditions -  °F | °C
As of 3:15 AM on Thursday 23 Oct 2014 (Local Time) from KDZB Reporting Station
Broken Clouds Broken Clouds  
Wind Chill: 68°   Ceiling: 12000
Heat Index: 68°   Visibility: 10mi
Dew Point: 58°   Wind: 5mph
Humidity: 70%   Direction: 160°SSE
Pressure: 30.11"   Gusts: NA
Location:  30.28°N, 98.41°W
Report Text: KDZB 230815Z AUTO 16004KT 10SM BKN120 20/14 A3011 RMK AO2 T02000144
Loading
Personal Weather Stations






























Interactive Weather Map
Tropical Storm Tracking
New forecast layout! Learn more

10-Day Weather Forecast

Advertisements
Track Severe Weather on mobile